sensor_id;sensor_type;location;lat;lon;timestamp;temperature;humidity
39325;DHT22;25037;49.488;9.900;2023-05-10T00:00:02;17.80;58.60
39325;DHT22;25037;49.488;9.900;2023-05-10T00:02:31;17.80;58.50
39325;DHT22;25037;49.488;9.900;2023-05-10T00:04:57;17.80;58.50
39325;DHT22;25037;49.488;9.900;2023-05-10T00:07:24;17.80;58.70
39325;DHT22;25037;49.488;9.900;2023-05-10T00:09:51;17.80;58.80
39325;DHT22;25037;49.488;9.900;2023-05-10T00:12:18;17.80;58.80
39325;DHT22;25037;49.488;9.900;2023-05-10T00:14:44;17.80;58.90
39325;DHT22;25037;49.488;9.900;2023-05-10T00:17:11;17.70;58.90
39325;DHT22;25037;49.488;9.900;2023-05-10T00:19:38;17.70;59.00
39325;DHT22;25037;49.488;9.900;2023-05-10T00:22:04;17.70;59.00
39325;DHT22;25037;49.488;9.900;2023-05-10T00:24:31;17.60;59.00
39325;DHT22;25037;49.488;9.900;2023-05-10T00:26:57;17.60;59.20
39325;DHT22;25037;49.488;9.900;2023-05-10T00:29:24;17.50;59.40
39325;DHT22;25037;49.488;9.900;2023-05-10T00:31:50;17.50;59.60
39325;DHT22;25037;49.488;9.900;2023-05-10T00:34:17;17.50;59.80
39325;DHT22;25037;49.488;9.900;2023-05-10T00:36:44;17.40;59.70
39325;DHT22;25037;49.488;9.900;2023-05-10T00:39:10;17.40;59.80
39325;DHT22;25037;49.488;9.900;2023-05-10T00:41:37;17.40;59.80
39325;DHT22;25037;49.488;9.900;2023-05-10T00:44:03;17.40;59.90
39325;DHT22;25037;49.488;9.900;2023-05-10T00:46:30;17.30;59.90
39325;DHT22;25037;49.488;9.900;2023-05-10T00:48:57;17.30;60.20
39325;DHT22;25037;49.488;9.900;2023-05-10T00:51:24;17.30;60.10
39325;DHT22;25037;49.488;9.900;2023-05-10T00:53:51;17.30;60.00
39325;DHT22;25037;49.488;9.900;2023-05-10T00:56:17;17.30;60.10
39325;DHT22;25037;49.488;9.900;2023-05-10T00:58:44;17.30;60.10
39325;DHT22;25037;49.488;9.900;2023-05-10T01:01:11;17.30;60.10
39325;DHT22;25037;49.488;9.900;2023-05-10T01:03:38;17.30;60.30
39325;DHT22;25037;49.488;9.900;2023-05-10T01:06:06;17.30;60.40
39325;DHT22;25037;49.488;9.900;2023-05-10T01:08:32;17.30;60.60
39325;DHT22;25037;49.488;9.900;2023-05-10T01:10:59;17.20;60.80
39325;DHT22;25037;49.488;9.900;2023-05-10T01:13:30;17.20;60.80
39325;DHT22;25037;49.488;9.900;2023-05-10T01:15:58;17.10;60.90
39325;DHT22;25037;49.488;9.900;2023-05-10T01:18:25;17.10;61.10
39325;DHT22;25037;49.488;9.900;2023-05-10T01:20:55;17.10;61.40
39325;DHT22;25037;49.488;9.900;2023-05-10T01:23:28;17.00;61.80
39325;DHT22;25037;49.488;9.900;2023-05-10T01:31:19;16.90;61.80
39325;DHT22;25037;49.488;9.900;2023-05-10T01:33:52;16.80;61.80
39325;DHT22;25037;49.488;9.900;2023-05-10T01:36:31;16.80;61.80
39325;DHT22;25037;49.488;9.900;2023-05-10T01:41:36;16.80;61.80
39325;DHT22;25037;49.488;9.900;2023-05-10T01:46:33;16.70;61.90
39325;DHT22;25037;49.488;9.900;2023-05-10T01:49:02;16.70;61.90
39325;DHT22;25037;49.488;9.900;2023-05-10T01:51:37;16.70;61.80
39325;DHT22;25037;49.488;9.900;2023-05-10T01:54:05;16.70;62.20
39325;DHT22;25037;49.488;9.900;2023-05-10T01:56:33;16.70;62.30
39325;DHT22;25037;49.488;9.900;2023-05-10T01:59:01;16.70;62.40
39325;DHT22;25037;49.488;9.900;2023-05-10T02:01:29;16.70;62.30
39325;DHT22;25037;49.488;9.900;2023-05-10T02:03:56;16.70;62.60
39325;DHT22;25037;49.488;9.900;2023-05-10T02:06:23;16.60;62.50
39325;DHT22;25037;49.488;9.900;2023-05-10T02:08:50;16.60;62.60
39325;DHT22;25037;49.488;9.900;2023-05-10T02:11:18;16.60;62.60
39325;DHT22;25037;49.488;9.900;2023-05-10T02:13:47;16.60;62.70
39325;DHT22;25037;49.488;9.900;2023-05-10T02:16:15;16.60;63.10
39325;DHT22;25037;49.488;9.900;2023-05-10T02:18:43;16.50;63.10
39325;DHT22;25037;49.488;9.900;2023-05-10T02:21:10;16.50;63.10
39325;DHT22;25037;49.488;9.900;2023-05-10T02:23:37;16.50;63.10
39325;DHT22;25037;49.488;9.900;2023-05-10T02:26:04;16.50;63.20
39325;DHT22;25037;49.488;9.900;2023-05-10T02:28:32;16.40;63.40
39325;DHT22;25037;49.488;9.900;2023-05-10T02:30:59;16.40;63.60
39325;DHT22;25037;49.488;9.900;2023-05-10T02:33:26;16.40;63.60
39325;DHT22;25037;49.488;9.900;2023-05-10T02:35:54;16.40;63.60
39325;DHT22;25037;49.488;9.900;2023-05-10T02:38:21;16.40;63.60
39325;DHT22;25037;49.488;9.900;2023-05-10T02:40:49;16.40;63.60
39325;DHT22;25037;49.488;9.900;2023-05-10T02:43:16;16.30;63.80
39325;DHT22;25037;49.488;9.900;2023-05-10T02:45:45;16.30;63.80
39325;DHT22;25037;49.488;9.900;2023-05-10T02:48:13;16.30;63.80
39325;DHT22;25037;49.488;9.900;2023-05-10T02:50:40;16.30;63.70
39325;DHT22;25037;49.488;9.900;2023-05-10T02:53:15;16.30;63.60
39325;DHT22;25037;49.488;9.900;2023-05-10T02:55:42;16.20;63.80
39325;DHT22;25037;49.488;9.900;2023-05-10T02:58:10;16.20;63.80
39325;DHT22;25037;49.488;9.900;2023-05-10T03:00:37;16.20;63.90
39325;DHT22;25037;49.488;9.900;2023-05-10T03:03:03;16.10;63.90
39325;DHT22;25037;49.488;9.900;2023-05-10T03:05:30;16.10;63.90
39325;DHT22;25037;49.488;9.900;2023-05-10T03:07:56;16.00;63.90
39325;DHT22;25037;49.488;9.900;2023-05-10T03:10:25;16.00;63.90
39325;DHT22;25037;49.488;9.900;2023-05-10T03:15:31;16.00;63.80
39325;DHT22;25037;49.488;9.900;2023-05-10T03:18:07;16.00;63.80
39325;DHT22;25037;49.488;9.900;2023-05-10T03:20:36;16.00;63.70
39325;DHT22;25037;49.488;9.900;2023-05-10T03:23:07;16.00;63.80
39325;DHT22;25037;49.488;9.900;2023-05-10T03:25:37;16.00;63.70
39325;DHT22;25037;49.488;9.900;2023-05-10T03:28:04;16.00;63.70
39325;DHT22;25037;49.488;9.900;2023-05-10T03:30:31;15.90;64.00
39325;DHT22;25037;49.488;9.900;2023-05-10T03:32:58;15.90;64.00
39325;DHT22;25037;49.488;9.900;2023-05-10T03:35:24;15.90;64.00
39325;DHT22;25037;49.488;9.900;2023-05-10T03:37:51;15.90;64.10
39325;DHT22;25037;49.488;9.900;2023-05-10T03:40:17;15.90;64.20
39325;DHT22;25037;49.488;9.900;2023-05-10T03:42:44;15.90;64.20
39325;DHT22;25037;49.488;9.900;2023-05-10T03:45:11;15.90;64.50
39325;DHT22;25037;49.488;9.900;2023-05-10T03:47:38;15.90;64.50
39325;DHT22;25037;49.488;9.900;2023-05-10T03:50:04;15.90;64.60
39325;DHT22;25037;49.488;9.900;2023-05-10T03:52:31;15.80;64.70
39325;DHT22;25037;49.488;9.900;2023-05-10T03:54:58;15.80;64.70
39325;DHT22;25037;49.488;9.900;2023-05-10T03:57:24;15.80;64.90
39325;DHT22;25037;49.488;9.900;2023-05-10T03:59:51;15.80;64.90
39325;DHT22;25037;49.488;9.900;2023-05-10T04:02:17;15.80;64.90
39325;DHT22;25037;49.488;9.900;2023-05-10T04:04:44;15.80;65.00
39325;DHT22;25037;49.488;9.900;2023-05-10T04:07:10;15.80;65.10
39325;DHT22;25037;49.488;9.900;2023-05-10T04:09:37;15.80;65.10
39325;DHT22;25037;49.488;9.900;2023-05-10T04:12:04;15.80;65.00
39325;DHT22;25037;49.488;9.900;2023-05-10T04:14:30;15.80;64.90
39325;DHT22;25037;49.488;9.900;2023-05-10T04:16:57;15.80;65.00
39325;DHT22;25037;49.488;9.900;2023-05-10T04:19:24;15.90;64.90
39325;DHT22;25037;49.488;9.900;2023-05-10T04:21:50;15.90;64.90
39325;DHT22;25037;49.488;9.900;2023-05-10T04:24:17;15.90;65.00
39325;DHT22;25037;49.488;9.900;2023-05-10T04:26:43;15.90;65.00
39325;DHT22;25037;49.488;9.900;2023-05-10T04:29:10;15.90;65.10
39325;DHT22;25037;49.488;9.900;2023-05-10T04:31:36;15.90;65.10
39325;DHT22;25037;49.488;9.900;2023-05-10T04:34:03;16.00;65.10
39325;DHT22;25037;49.488;9.900;2023-05-10T04:36:29;16.00;65.10
39325;DHT22;25037;49.488;9.900;2023-05-10T04:38:56;16.00;65.00
39325;DHT22;25037;49.488;9.900;2023-05-10T04:41:22;16.10;65.00
39325;DHT22;25037;49.488;9.900;2023-05-10T04:43:49;16.10;65.00
39325;DHT22;25037;49.488;9.900;2023-05-10T04:46:16;16.10;65.00
39325;DHT22;25037;49.488;9.900;2023-05-10T04:48:42;16.20;65.00
39325;DHT22;25037;49.488;9.900;2023-05-10T04:51:09;16.20;65.00
39325;DHT22;25037;49.488;9.900;2023-05-10T04:53:35;16.20;65.00
39325;DHT22;25037;49.488;9.900;2023-05-10T04:56:02;16.20;65.00
39325;DHT22;25037;49.488;9.900;2023-05-10T04:58:29;16.30;64.90
39325;DHT22;25037;49.488;9.900;2023-05-10T05:00:55;16.30;64.90
39325;DHT22;25037;49.488;9.900;2023-05-10T05:03:22;16.40;64.90
39325;DHT22;25037;49.488;9.900;2023-05-10T05:05:48;16.40;64.80
39325;DHT22;25037;49.488;9.900;2023-05-10T05:08:15;16.40;64.70
39325;DHT22;25037;49.488;9.900;2023-05-10T05:10:42;16.40;64.70
39325;DHT22;25037;49.488;9.900;2023-05-10T05:13:09;16.50;64.80
39325;DHT22;25037;49.488;9.900;2023-05-10T05:15:35;16.50;64.60
39325;DHT22;25037;49.488;9.900;2023-05-10T05:18:02;16.60;64.70
39325;DHT22;25037;49.488;9.900;2023-05-10T05:20:31;16.60;64.80
39325;DHT22;25037;49.488;9.900;2023-05-10T05:22:57;16.60;64.80
39325;DHT22;25037;49.488;9.900;2023-05-10T05:25:24;16.70;64.80
39325;DHT22;25037;49.488;9.900;2023-05-10T05:27:51;16.70;64.80
39325;DHT22;25037;49.488;9.900;2023-05-10T05:30:17;16.70;64.80
39325;DHT22;25037;49.488;9.900;2023-05-10T05:32:44;16.80;64.60
39325;DHT22;25037;49.488;9.900;2023-05-10T05:35:11;16.90;64.60
39325;DHT22;25037;49.488;9.900;2023-05-10T05:37:37;17.00;64.40
39325;DHT22;25037;49.488;9.900;2023-05-10T05:40:04;17.10;64.30
39325;DHT22;25037;49.488;9.900;2023-05-10T05:42:31;17.30;64.00
39325;DHT22;25037;49.488;9.900;2023-05-10T05:44:58;17.50;63.80
39325;DHT22;25037;49.488;9.900;2023-05-10T05:47:25;17.70;63.60
39325;DHT22;25037;49.488;9.900;2023-05-10T05:49:51;18.00;63.20
39325;DHT22;25037;49.488;9.900;2023-05-10T05:52:18;18.20;63.00
39325;DHT22;25037;49.488;9.900;2023-05-10T05:54:44;18.60;62.70
39325;DHT22;25037;49.488;9.900;2023-05-10T05:57:11;19.00;62.20
39325;DHT22;25037;49.488;9.900;2023-05-10T05:59:38;19.90;60.90
39325;DHT22;25037;49.488;9.900;2023-05-10T06:02:08;20.80;59.70
39325;DHT22;25037;49.488;9.900;2023-05-10T06:04:35;21.50;58.70
39325;DHT22;25037;49.488;9.900;2023-05-10T06:07:01;22.20;57.80
39325;DHT22;25037;49.488;9.900;2023-05-10T06:09:28;22.00;58.50
39325;DHT22;25037;49.488;9.900;2023-05-10T06:11:54;21.80;59.00
39325;DHT22;25037;49.488;9.900;2023-05-10T06:14:21;21.70;59.30
39325;DHT22;25037;49.488;9.900;2023-05-10T06:16:48;21.80;59.40
39325;DHT22;25037;49.488;9.900;2023-05-10T06:19:14;21.70;59.80
39325;DHT22;25037;49.488;9.900;2023-05-10T06:21:41;21.30;60.10
39325;DHT22;25037;49.488;9.900;2023-05-10T06:24:08;21.00;60.60
39325;DHT22;25037;49.488;9.900;2023-05-10T06:26:34;20.70;60.90
39325;DHT22;25037;49.488;9.900;2023-05-10T06:29:01;20.60;61.10
39325;DHT22;25037;49.488;9.900;2023-05-10T06:31:27;20.60;61.10
39325;DHT22;25037;49.488;9.900;2023-05-10T06:33:54;20.40;61.10
39325;DHT22;25037;49.488;9.900;2023-05-10T06:36:22;20.20;61.40
39325;DHT22;25037;49.488;9.900;2023-05-10T06:38:50;20.10;61.40
39325;DHT22;25037;49.488;9.900;2023-05-10T06:41:17;20.20;61.20
39325;DHT22;25037;49.488;9.900;2023-05-10T06:43:44;20.70;60.50
39325;DHT22;25037;49.488;9.900;2023-05-10T06:46:10;21.10;60.00
39325;DHT22;25037;49.488;9.900;2023-05-10T06:48:37;21.50;59.50
39325;DHT22;25037;49.488;9.900;2023-05-10T06:51:03;21.70;59.20
39325;DHT22;25037;49.488;9.900;2023-05-10T06:53:30;21.80;59.20
39325;DHT22;25037;49.488;9.900;2023-05-10T06:55:56;21.80;59.00
39325;DHT22;25037;49.488;9.900;2023-05-10T06:58:23;21.80;58.70
39325;DHT22;25037;49.488;9.900;2023-05-10T07:00:50;21.70;58.80
39325;DHT22;25037;49.488;9.900;2023-05-10T07:03:16;21.60;59.00
39325;DHT22;25037;49.488;9.900;2023-05-10T07:05:43;21.50;59.00
39325;DHT22;25037;49.488;9.900;2023-05-10T07:08:10;21.60;59.00
39325;DHT22;25037;49.488;9.900;2023-05-10T07:10:36;21.70;58.70
39325;DHT22;25037;49.488;9.900;2023-05-10T07:13:03;22.00;58.30
39325;DHT22;25037;49.488;9.900;2023-05-10T07:15:29;22.00;58.00
39325;DHT22;25037;49.488;9.900;2023-05-10T07:17:56;22.20;57.40
39325;DHT22;25037;49.488;9.900;2023-05-10T07:20:23;22.10;57.60
39325;DHT22;25037;49.488;9.900;2023-05-10T07:22:49;21.90;57.70
39325;DHT22;25037;49.488;9.900;2023-05-10T07:25:16;21.80;58.00
39325;DHT22;25037;49.488;9.900;2023-05-10T07:27:43;21.70;58.10
39325;DHT22;25037;49.488;9.900;2023-05-10T07:30:09;21.80;57.80
39325;DHT22;25037;49.488;9.900;2023-05-10T07:32:36;21.80;57.80
39325;DHT22;25037;49.488;9.900;2023-05-10T07:35:03;21.90;57.70
39325;DHT22;25037;49.488;9.900;2023-05-10T07:37:30;22.00;57.40
39325;DHT22;25037;49.488;9.900;2023-05-10T07:39:56;22.20;57.20
39325;DHT22;25037;49.488;9.900;2023-05-10T07:42:23;22.20;57.20
39325;DHT22;25037;49.488;9.900;2023-05-10T07:44:49;22.30;57.20
39325;DHT22;25037;49.488;9.900;2023-05-10T07:47:16;22.30;56.90
39325;DHT22;25037;49.488;9.900;2023-05-10T07:49:42;22.50;56.60
39325;DHT22;25037;49.488;9.900;2023-05-10T07:52:09;22.80;56.10
39325;DHT22;25037;49.488;9.900;2023-05-10T07:54:36;23.00;55.80
39325;DHT22;25037;49.488;9.900;2023-05-10T07:57:03;23.00;55.50
39325;DHT22;25037;49.488;9.900;2023-05-10T07:59:30;22.90;55.70
39325;DHT22;25037;49.488;9.900;2023-05-10T08:01:56;22.80;56.00
39325;DHT22;25037;49.488;9.900;2023-05-10T08:04:23;22.70;56.10
39325;DHT22;25037;49.488;9.900;2023-05-10T08:06:50;22.70;56.20
39325;DHT22;25037;49.488;9.900;2023-05-10T08:09:16;22.70;55.90
39325;DHT22;25037;49.488;9.900;2023-05-10T08:11:44;22.80;55.90
39325;DHT22;25037;49.488;9.900;2023-05-10T08:14:10;23.00;55.40
39325;DHT22;25037;49.488;9.900;2023-05-10T08:16:37;23.10;55.00
39325;DHT22;25037;49.488;9.900;2023-05-10T08:19:03;23.20;54.60
39325;DHT22;25037;49.488;9.900;2023-05-10T08:21:31;23.30;54.70
39325;DHT22;25037;49.488;9.900;2023-05-10T08:23:57;23.20;54.50
39325;DHT22;25037;49.488;9.900;2023-05-10T08:26:24;23.20;54.40
39325;DHT22;25037;49.488;9.900;2023-05-10T08:28:50;23.20;54.50
39325;DHT22;25037;49.488;9.900;2023-05-10T08:31:17;23.10;54.70
39325;DHT22;25037;49.488;9.900;2023-05-10T08:33:44;23.00;54.70
39325;DHT22;25037;49.488;9.900;2023-05-10T08:36:11;23.00;54.80
39325;DHT22;25037;49.488;9.900;2023-05-10T08:38:40;23.10;54.70
39325;DHT22;25037;49.488;9.900;2023-05-10T08:41:06;23.10;54.50
39325;DHT22;25037;49.488;9.900;2023-05-10T08:43:33;23.00;54.50
39325;DHT22;25037;49.488;9.900;2023-05-10T08:46:02;23.00;54.40
39325;DHT22;25037;49.488;9.900;2023-05-10T08:48:31;22.80;54.50
39325;DHT22;25037;49.488;9.900;2023-05-10T08:51:00;22.70;54.40
39325;DHT22;25037;49.488;9.900;2023-05-10T08:53:28;22.50;54.50
39325;DHT22;25037;49.488;9.900;2023-05-10T08:55:55;22.50;54.80
39325;DHT22;25037;49.488;9.900;2023-05-10T08:58:22;22.40;54.80
39325;DHT22;25037;49.488;9.900;2023-05-10T09:00:48;22.30;54.90
39325;DHT22;25037;49.488;9.900;2023-05-10T09:03:15;22.20;55.00
39325;DHT22;25037;49.488;9.900;2023-05-10T09:05:42;22.20;55.10
39325;DHT22;25037;49.488;9.900;2023-05-10T09:08:08;22.20;55.00
39325;DHT22;25037;49.488;9.900;2023-05-10T09:10:35;22.20;54.90
39325;DHT22;25037;49.488;9.900;2023-05-10T09:13:03;22.20;55.00
39325;DHT22;25037;49.488;9.900;2023-05-10T09:15:30;22.20;54.90
39325;DHT22;25037;49.488;9.900;2023-05-10T09:17:57;22.10;54.90
39325;DHT22;25037;49.488;9.900;2023-05-10T09:20:25;22.10;54.80
39325;DHT22;25037;49.488;9.900;2023-05-10T09:22:52;22.00;54.90
39325;DHT22;25037;49.488;9.900;2023-05-10T09:25:18;22.00;54.90
39325;DHT22;25037;49.488;9.900;2023-05-10T09:27:46;22.10;54.80
39325;DHT22;25037;49.488;9.900;2023-05-10T09:30:23;22.30;54.60
39325;DHT22;25037;49.488;9.900;2023-05-10T09:32:50;22.70;54.30
39325;DHT22;25037;49.488;9.900;2023-05-10T09:35:18;22.80;54.20
39325;DHT22;25037;49.488;9.900;2023-05-10T09:37:46;23.00;54.00
39325;DHT22;25037;49.488;9.900;2023-05-10T09:40:14;23.20;53.90
39325;DHT22;25037;49.488;9.900;2023-05-10T09:42:42;23.30;53.80
39325;DHT22;25037;49.488;9.900;2023-05-10T09:45:16;23.40;53.70
39325;DHT22;25037;49.488;9.900;2023-05-10T09:47:43;23.60;53.60
39325;DHT22;25037;49.488;9.900;2023-05-10T09:50:10;23.70;53.40
39325;DHT22;25037;49.488;9.900;2023-05-10T09:52:53;23.90;53.00
39325;DHT22;25037;49.488;9.900;2023-05-10T09:55:23;24.10;52.70
39325;DHT22;25037;49.488;9.900;2023-05-10T09:58:00;24.10;52.50
39325;DHT22;25037;49.488;9.900;2023-05-10T10:00:27;24.10;52.40
39325;DHT22;25037;49.488;9.900;2023-05-10T10:02:55;23.90;52.30
39325;DHT22;25037;49.488;9.900;2023-05-10T10:05:27;23.60;52.50
39325;DHT22;25037;49.488;9.900;2023-05-10T10:07:55;23.30;52.70
39325;DHT22;25037;49.488;9.900;2023-05-10T10:10:21;23.20;52.90
39325;DHT22;25037;49.488;9.900;2023-05-10T10:12:48;23.20;53.00
39325;DHT22;25037;49.488;9.900;2023-05-10T10:15:15;23.30;52.70
39325;DHT22;25037;49.488;9.900;2023-05-10T10:17:42;23.50;52.50
39325;DHT22;25037;49.488;9.900;2023-05-10T10:20:09;23.80;52.20
39325;DHT22;25037;49.488;9.900;2023-05-10T10:22:37;24.00;52.00
39325;DHT22;25037;49.488;9.900;2023-05-10T10:25:04;24.10;51.60
39325;DHT22;25037;49.488;9.900;2023-05-10T10:33:00;24.70;50.70
39325;DHT22;25037;49.488;9.900;2023-05-10T10:35:42;24.80;50.70
39325;DHT22;25037;49.488;9.900;2023-05-10T10:38:09;25.00;50.40
39325;DHT22;25037;49.488;9.900;2023-05-10T10:40:38;25.00;50.10
39325;DHT22;25037;49.488;9.900;2023-05-10T10:46:12;24.80;50.20
39325;DHT22;25037;49.488;9.900;2023-05-10T10:48:40;24.70;50.10
39325;DHT22;25037;49.488;9.900;2023-05-10T10:51:07;24.50;50.30
39325;DHT22;25037;49.488;9.900;2023-05-10T10:53:36;24.40;50.50
39325;DHT22;25037;49.488;9.900;2023-05-10T10:56:09;24.30;50.50
39325;DHT22;25037;49.488;9.900;2023-05-10T10:58:37;24.30;50.60
39325;DHT22;25037;49.488;9.900;2023-05-10T11:03:37;24.40;50.30
39325;DHT22;25037;49.488;9.900;2023-05-10T11:06:04;24.40;50.20
39325;DHT22;25037;49.488;9.900;2023-05-10T11:08:31;24.30;50.10
39325;DHT22;25037;49.488;9.900;2023-05-10T11:13:32;24.50;49.90
39325;DHT22;25037;49.488;9.900;2023-05-10T11:15:59;24.70;49.70
39325;DHT22;25037;49.488;9.900;2023-05-10T11:18:35;24.70;49.70
39325;DHT22;25037;49.488;9.900;2023-05-10T11:21:02;24.70;49.60
39325;DHT22;25037;49.488;9.900;2023-05-10T11:23:31;24.70;49.50
39325;DHT22;25037;49.488;9.900;2023-05-10T11:25:59;24.50;49.70
39325;DHT22;25037;49.488;9.900;2023-05-10T11:28:26;24.30;50.00
39325;DHT22;25037;49.488;9.900;2023-05-10T11:30:53;24.30;50.20
39325;DHT22;25037;49.488;9.900;2023-05-10T11:33:21;24.20;50.30
39325;DHT22;25037;49.488;9.900;2023-05-10T11:35:47;24.20;50.30
39325;DHT22;25037;49.488;9.900;2023-05-10T11:38:14;24.30;50.30
39325;DHT22;25037;49.488;9.900;2023-05-10T11:40:41;24.30;50.30
39325;DHT22;25037;49.488;9.900;2023-05-10T11:43:08;24.40;50.30
39325;DHT22;25037;49.488;9.900;2023-05-10T11:45:35;24.50;50.10
39325;DHT22;25037;49.488;9.900;2023-05-10T11:48:02;24.50;50.00
39325;DHT22;25037;49.488;9.900;2023-05-10T11:50:28;24.40;50.00
39325;DHT22;25037;49.488;9.900;2023-05-10T11:52:56;24.30;50.10
39325;DHT22;25037;49.488;9.900;2023-05-10T11:55:22;24.20;50.20
39325;DHT22;25037;49.488;9.900;2023-05-10T11:57:53;24.00;50.30
39325;DHT22;25037;49.488;9.900;2023-05-10T12:00:20;23.90;50.40
39325;DHT22;25037;49.488;9.900;2023-05-10T12:02:47;23.90;50.30
39325;DHT22;25037;49.488;9.900;2023-05-10T12:05:14;24.00;50.10
39325;DHT22;25037;49.488;9.900;2023-05-10T12:07:41;24.20;49.90
39325;DHT22;25037;49.488;9.900;2023-05-10T12:12:38;24.60;49.50
39325;DHT22;25037;49.488;9.900;2023-05-10T12:15:05;24.70;49.20
39325;DHT22;25037;49.488;9.900;2023-05-10T12:17:32;24.80;48.80
39325;DHT22;25037;49.488;9.900;2023-05-10T12:20:12;24.90;48.90
39325;DHT22;25037;49.488;9.900;2023-05-10T12:22:40;25.00;48.90
39325;DHT22;25037;49.488;9.900;2023-05-10T12:27:34;24.70;48.80
39325;DHT22;25037;49.488;9.900;2023-05-10T12:30:01;24.50;48.90
39325;DHT22;25037;49.488;9.900;2023-05-10T12:32:38;24.20;49.00
39325;DHT22;25037;49.488;9.900;2023-05-10T12:35:05;23.90;49.30
39325;DHT22;25037;49.488;9.900;2023-05-10T12:37:32;23.80;49.60
39325;DHT22;25037;49.488;9.900;2023-05-10T12:40:02;23.70;49.70
39325;DHT22;25037;49.488;9.900;2023-05-10T12:42:31;23.60;49.60
39325;DHT22;25037;49.488;9.900;2023-05-10T12:44:58;23.50;49.30
39325;DHT22;25037;49.488;9.900;2023-05-10T12:47:25;23.30;49.30
39325;DHT22;25037;49.488;9.900;2023-05-10T12:49:51;23.20;49.40
39325;DHT22;25037;49.488;9.900;2023-05-10T12:52:18;23.10;49.50
39325;DHT22;25037;49.488;9.900;2023-05-10T12:54:44;23.20;49.60
39325;DHT22;25037;49.488;9.900;2023-05-10T12:57:11;23.30;49.60
39325;DHT22;25037;49.488;9.900;2023-05-10T12:59:37;23.30;49.40
39325;DHT22;25037;49.488;9.900;2023-05-10T13:02:04;23.30;49.40
39325;DHT22;25037;49.488;9.900;2023-05-10T13:04:31;23.50;49.30
39325;DHT22;25037;49.488;9.900;2023-05-10T13:06:57;23.50;48.60
39325;DHT22;25037;49.488;9.900;2023-05-10T13:09:26;23.40;48.60
39325;DHT22;25037;49.488;9.900;2023-05-10T13:11:52;23.30;48.50
39325;DHT22;25037;49.488;9.900;2023-05-10T13:14:20;23.20;48.40
39325;DHT22;25037;49.488;9.900;2023-05-10T13:16:47;23.20;48.80
39325;DHT22;25037;49.488;9.900;2023-05-10T13:19:14;23.10;48.90
39325;DHT22;25037;49.488;9.900;2023-05-10T13:21:40;22.90;49.00
39325;DHT22;25037;49.488;9.900;2023-05-10T13:24:07;22.80;49.20
39325;DHT22;25037;49.488;9.900;2023-05-10T13:26:34;22.70;49.30
39325;DHT22;25037;49.488;9.900;2023-05-10T13:29:00;22.50;49.20
39325;DHT22;25037;49.488;9.900;2023-05-10T13:31:27;22.30;49.60
39325;DHT22;25037;49.488;9.900;2023-05-10T13:33:54;22.20;49.80
39325;DHT22;25037;49.488;9.900;2023-05-10T13:36:20;22.00;50.00
39325;DHT22;25037;49.488;9.900;2023-05-10T13:38:47;21.90;50.10
39325;DHT22;25037;49.488;9.900;2023-05-10T13:41:14;21.80;50.20
39325;DHT22;25037;49.488;9.900;2023-05-10T13:43:40;21.80;50.20
39325;DHT22;25037;49.488;9.900;2023-05-10T13:46:07;21.80;50.20
39325;DHT22;25037;49.488;9.900;2023-05-10T13:48:33;21.80;50.20
39325;DHT22;25037;49.488;9.900;2023-05-10T13:51:03;21.80;50.10
39325;DHT22;25037;49.488;9.900;2023-05-10T13:53:30;21.70;50.10
39325;DHT22;25037;49.488;9.900;2023-05-10T13:55:56;21.70;50.30
39325;DHT22;25037;49.488;9.900;2023-05-10T13:58:23;21.60;50.40
39325;DHT22;25037;49.488;9.900;2023-05-10T14:00:50;21.60;50.50
39325;DHT22;25037;49.488;9.900;2023-05-10T14:03:16;21.50;50.50
39325;DHT22;25037;49.488;9.900;2023-05-10T14:05:43;21.50;50.60
39325;DHT22;25037;49.488;9.900;2023-05-10T14:08:11;21.60;50.50
39325;DHT22;25037;49.488;9.900;2023-05-10T14:10:39;21.50;50.40
39325;DHT22;25037;49.488;9.900;2023-05-10T14:13:05;21.50;50.50
39325;DHT22;25037;49.488;9.900;2023-05-10T14:15:32;21.50;50.30
39325;DHT22;25037;49.488;9.900;2023-05-10T14:17:59;21.50;50.30
39325;DHT22;25037;49.488;9.900;2023-05-10T14:20:25;21.50;50.30
39325;DHT22;25037;49.488;9.900;2023-05-10T14:22:52;21.70;50.20
39325;DHT22;25037;49.488;9.900;2023-05-10T14:25:19;21.60;50.30
39325;DHT22;25037;49.488;9.900;2023-05-10T14:27:46;21.60;50.40
39325;DHT22;25037;49.488;9.900;2023-05-10T14:30:12;21.50;50.60
39325;DHT22;25037;49.488;9.900;2023-05-10T14:32:39;21.50;50.80
39325;DHT22;25037;49.488;9.900;2023-05-10T14:35:06;21.50;50.90
39325;DHT22;25037;49.488;9.900;2023-05-10T14:37:33;21.50;51.00
39325;DHT22;25037;49.488;9.900;2023-05-10T14:40:00;21.40;51.10
39325;DHT22;25037;49.488;9.900;2023-05-10T14:42:27;21.40;51.10
39325;DHT22;25037;49.488;9.900;2023-05-10T14:44:54;21.30;51.20
39325;DHT22;25037;49.488;9.900;2023-05-10T14:47:21;21.20;51.40
39325;DHT22;25037;49.488;9.900;2023-05-10T14:49:47;21.10;51.60
39325;DHT22;25037;49.488;9.900;2023-05-10T14:52:14;21.00;51.90
39325;DHT22;25037;49.488;9.900;2023-05-10T14:54:41;20.80;52.00
39325;DHT22;25037;49.488;9.900;2023-05-10T14:57:07;20.80;52.20
39325;DHT22;25037;49.488;9.900;2023-05-10T14:59:34;20.70;52.30
39325;DHT22;25037;49.488;9.900;2023-05-10T15:02:01;20.60;52.40
39325;DHT22;25037;49.488;9.900;2023-05-10T15:04:28;20.60;52.50
39325;DHT22;25037;49.488;9.900;2023-05-10T15:06:55;20.50;52.50
39325;DHT22;25037;49.488;9.900;2023-05-10T15:09:25;20.50;52.60
39325;DHT22;25037;49.488;9.900;2023-05-10T15:11:54;20.40;52.70
39325;DHT22;25037;49.488;9.900;2023-05-10T15:14:21;20.40;52.70
39325;DHT22;25037;49.488;9.900;2023-05-10T15:16:48;20.40;52.70
39325;DHT22;25037;49.488;9.900;2023-05-10T15:19:14;20.50;52.70
39325;DHT22;25037;49.488;9.900;2023-05-10T15:21:41;20.60;52.60
39325;DHT22;25037;49.488;9.900;2023-05-10T15:24:10;20.70;52.60
39325;DHT22;25037;49.488;9.900;2023-05-10T15:26:37;20.70;52.50
39325;DHT22;25037;49.488;9.900;2023-05-10T15:29:03;20.80;52.40
39325;DHT22;25037;49.488;9.900;2023-05-10T15:31:30;20.90;52.50
39325;DHT22;25037;49.488;9.900;2023-05-10T15:33:58;20.90;52.40
39325;DHT22;25037;49.488;9.900;2023-05-10T15:36:25;21.00;52.30
39325;DHT22;25037;49.488;9.900;2023-05-10T15:38:53;21.10;52.40
39325;DHT22;25037;49.488;9.900;2023-05-10T15:41:19;21.10;52.30
39325;DHT22;25037;49.488;9.900;2023-05-10T15:43:47;21.20;52.20
39325;DHT22;25037;49.488;9.900;2023-05-10T15:46:13;21.20;52.10
39325;DHT22;25037;49.488;9.900;2023-05-10T15:48:40;21.30;52.00
39325;DHT22;25037;49.488;9.900;2023-05-10T15:51:06;21.30;51.90
39325;DHT22;25037;49.488;9.900;2023-05-10T15:53:33;21.30;51.90
39325;DHT22;25037;49.488;9.900;2023-05-10T15:55:59;21.30;51.80
39325;DHT22;25037;49.488;9.900;2023-05-10T15:58:26;21.40;51.60
39325;DHT22;25037;49.488;9.900;2023-05-10T16:00:52;21.30;51.60